EGGP Airport Information

Runway Information
Runway 09 Length 7497 ft width 150 ft Elevation 59 ft Threshold 200 ft Heading 86
Runway 27 Length 7497 ft Width 150 ft Elevation 77 ft Threshold N/A Heading 266
Airport Frequencies
Type APP Name APP Frequency 119.85 MHZ
Type ATIS Name ATIS Frequency 124.325 MHZ
Type GND Name GND Frequency 121.95 MHZ
Type TWR Name TWR Frequency 126.35 MHZ
Airport Navaids
Airport Weather Information & NOTAM
ADDS - METARS form results

(1541 UTC 07 December 2022)
Data provider http://aviationweather.gov/metar/data/
 
METAR text: EGGP 071520Z 33005KT 280V350 9999 FEW030 04/M01 Q1021
Conditions at: EGGP (LIVERPOOL AIRPOR, GB) observed 1520 UTC 07 December 2022
Temperature: 4.0°C (39°F)
Dewpoint: -1.0°C (30°F) [RH = 70%]
Pressure (altimeter): 30.15 inches Hg (1021.0 mb)
Winds: from the NNW (330 degrees) at 6 MPH (5 knots; 2.6 m/s)
Visibility: 6 or more miles (10+ km)
Ceiling: at least 12,000 feet AGL
Clouds: few clouds at 3000 feet AGL
Weather: no significant weather observed at this time

METAR text: EGGP 071450Z 33007KT 9999 FEW027 05/M01 Q1021
Conditions at: EGGP (LIVERPOOL AIRPOR, GB) observed 1450 UTC 07 December 2022
Temperature: 5.0°C (41°F)
Dewpoint: -1.0°C (30°F) [RH = 65%]
Pressure (altimeter): 30.15 inches Hg (1021.0 mb)
Winds: from the NNW (330 degrees) at 8 MPH (7 knots; 3.6 m/s)
Visibility: 6 or more miles (10+ km)
Ceiling: at least 12,000 feet AGL
Clouds: few clouds at 2700 feet AGL
Weather: no significant weather observed at this time

Forecast for: EGGP (LIVERPOOL AIRPOR, GB)
Text: TAF EGGP 071101Z 0712/0812 34005KT 9999 FEW040
Forecast period: 1200 UTC 07 December 2022 to 1200 UTC 08 December 2022
Forecast type: FROM: standard forecast or significant change
Winds: from the NNW (340 degrees) at 6 MPH (5 knots; 2.6 m/s)
Visibility: 6 or more miles (10+ km)
Ceiling: at least 12,000 feet AGL
Clouds: few clouds at 4000 feet AGL
Weather: no significant weather forecast for this period
Text: PROB30
Forecast period: 2200 UTC 07 December 2022 to 0200 UTC 08 December 2022
Forecast type: TEMPORARY: The following changes expected for less than half the time period
Visibility: 4 miles (6 km)
Ceiling: unknown
Clouds: missing
Weather: SHRA  (rain showers)
Text: TEMPO 0722/0802 6000 SHRA
Forecast period: 0900 to 1100 UTC 08 December 2022
Forecast type: PROBABLE: 30 percent likelihood of the following during this time
Visibility: 6 miles (9 km)
Ceiling: unknown
Clouds: missing
Weather: no significant weather forecast for this period